Time;durP1;ratioP1;P1;durP2;ratioP2;P2;SDS_P1;SDS_P2;PMS_P1;PMS_P2;Temp;Humidity;BMP_temperature;BMP_pressure;BME280_temperature;BME280_humidity;BME280_pressure;Samples;Min_cycle;Max_cycle;Signal;HPM_P1;HPM_P2
2023/05/08 00:00:11;;;;;;;2.65;2.45;;;;;;;20.28;60.81;101832.94;20803686;28;20976;-66
2023/05/08 00:10:13;;;;;;;2.42;2.22;;;;;;;20.26;60.73;101834.91;20780958;28;20049;-65
2023/05/08 00:20:15;;;;;;;2.63;2.42;;;;;;;20.25;60.60;101834.06;20808539;28;20056;-66
2023/05/08 00:30:17;;;;;;;2.50;2.30;;;;;;;20.23;60.56;101837.88;20812396;28;20103;-66
2023/05/08 00:40:18;;;;;;;2.67;2.47;;;;;;;20.21;60.30;101837.16;20816136;28;20091;-66
2023/05/08 00:50:20;;;;;;;2.72;2.53;;;;;;;20.20;60.20;101851.66;20818459;28;20049;-66
2023/05/08 01:00:22;;;;;;;2.55;2.35;;;;;;;20.18;60.08;101842.81;20805350;28;20081;-66
2023/05/08 01:10:30;;;;;;;2.65;2.45;;;;;;;20.17;59.89;101825.75;20794714;28;20049;-66
2023/05/08 01:20:49;;;;;;;3.35;2.92;;;;;;;20.16;59.86;101833.97;20790692;28;20049;-66
2023/05/08 01:30:58;;;;;;;3.00;2.72;;;;;;;20.12;59.71;101827.97;20793575;28;20540;-66
2023/05/08 01:41:15;;;;;;;3.47;2.60;;;;;;;20.07;59.68;101822.94;20821461;28;20052;-66
2023/05/08 01:51:20;;;;;;;2.83;2.63;;;;;;;20.10;59.60;101827.22;20812741;28;20095;-66
2023/05/08 02:01:23;;;;;;;2.88;2.60;;;;;;;20.10;59.55;101832.63;20808638;28;20037;-66
2023/05/08 02:11:25;;;;;;;2.83;2.60;;;;;;;20.08;59.38;101840.88;20791021;28;20192;-66
2023/05/08 02:21:27;;;;;;;2.90;2.50;;;;;;;20.07;59.15;101835.59;20814178;28;20041;-66
2023/05/08 02:31:30;;;;;;;2.65;2.38;;;;;;;20.07;59.12;101844.56;20792763;28;20045;-66
2023/05/08 02:41:32;;;;;;;2.90;2.63;;;;;;;20.05;58.82;101854.66;20789289;28;20038;-66
2023/05/08 02:51:56;;;;;;;3.03;2.78;;;;;;;20.04;58.71;101843.97;20788637;28;20077;-66
2023/05/08 03:02:11;;;;;;;3.17;2.88;;;;;;;20.01;58.57;101850.50;20805262;28;20076;-66
2023/05/08 03:12:16;;;;;;;3.03;2.72;;;;;;;20.01;58.51;101845.09;20802878;28;20069;-66
2023/05/08 03:22:19;;;;;;;2.95;2.63;;;;;;;19.99;58.40;101849.75;20801018;28;20054;-66
2023/05/08 03:32:23;;;;;;;2.72;2.35;;;;;;;19.97;58.15;101846.34;20804461;28;20052;-66
2023/05/08 03:42:25;;;;;;;2.40;2.20;;;;;;;19.92;58.68;101849.41;20785797;28;20092;-66
2023/05/08 03:52:27;;;;;;;2.40;2.20;;;;;;;19.91;60.01;101836.03;20806340;28;20057;-66
2023/05/08 04:02:49;;;;;;;2.17;1.98;;;;;;;19.92;61.27;101840.44;20817230;28;20075;-66
2023/05/08 04:13:07;;;;;;;3.58;2.33;;;;;;;19.91;61.38;101841.44;20777298;28;20506;-66
2023/05/08 04:23:17;;;;;;;3.63;2.30;;;;;;;19.90;61.11;101845.09;20782394;28;20132;-66
2023/05/08 04:33:19;;;;;;;3.50;2.33;;;;;;;19.88;60.84;101841.63;20761877;28;20074;-66
2023/05/08 04:43:21;;;;;;;3.00;2.70;;;;;;;19.86;61.54;101839.91;20787672;28;20092;-64
2023/05/08 04:53:23;;;;;;;2.63;2.25;;;;;;;19.89;61.73;101840.69;20807100;28;20042;-64
2023/05/08 05:03:24;;;;;;;2.40;2.20;;;;;;;19.85;61.37;101840.91;20811730;28;20045;-64
2023/05/08 05:13:26;;;;;;;3.47;2.40;;;;;;;19.85;61.18;101853.56;20812476;28;20412;-64
2023/05/08 05:23:28;;;;;;;2.75;2.30;;;;;;;19.77;60.86;101834.44;20872431;28;20048;-64
2023/05/08 05:33:30;;;;;;;2.45;2.05;;;;;;;19.85;60.51;101851.72;20897840;28;20049;-64
2023/05/08 05:43:32;;;;;;;2.28;2.08;;;;;;;19.85;60.20;101865.22;20897393;28;20052;-64
2023/05/08 05:53:34;;;;;;;2.17;1.98;;;;;;;19.85;60.07;101869.78;20897358;28;20072;-64
2023/05/08 06:03:36;;;;;;;2.65;2.38;;;;;;;19.86;59.79;101872.34;20896366;28;20505;-64
2023/05/08 06:13:39;;;;;;;2.63;2.42;;;;;;;19.89;59.58;101878.50;20884614;28;20115;-64
2023/05/08 06:23:41;;;;;;;3.22;2.40;;;;;;;19.91;59.23;101881.97;20907787;28;20118;-64
2023/05/08 06:33:43;;;;;;;2.40;1.88;;;;;;;19.93;58.96;101870.03;20910278;28;20077;-64
2023/05/08 06:43:44;;;;;;;1.98;1.83;;;;;;;19.89;59.05;101855.03;20909615;28;20523;-64
2023/05/08 06:53:46;;;;;;;2.22;2.03;;;;;;;19.98;58.81;101875.91;20910858;28;20059;-64
2023/05/08 07:03:47;;;;;;;2.20;2.00;;;;;;;19.94;58.79;101865.50;20909452;28;20052;-64
2023/05/08 07:13:49;;;;;;;2.17;1.98;;;;;;;20.04;58.74;101879.09;20892879;28;20056;-64
2023/05/08 07:23:52;;;;;;;1.90;1.80;;;;;;;20.10;58.56;101881.28;20907632;28;20048;-64
2023/05/08 07:33:54;;;;;;;1.92;1.83;;;;;;;20.19;58.50;101871.56;20907062;28;20560;-64
2023/05/08 07:43:55;;;;;;;2.50;2.00;;;;;;;20.28;58.23;101859.97;20906116;28;20053;-64
2023/05/08 07:53:57;;;;;;;2.17;2.03;;;;;;;20.38;58.09;101862.78;20905277;28;20056;-64
2023/05/08 08:03:59;;;;;;;2.47;2.03;;;;;;;20.48;58.19;101854.75;20904898;28;20668;-64
2023/05/08 08:14:01;;;;;;;2.25;2.05;;;;;;;20.56;58.06;101863.94;20892357;28;20094;-64
2023/05/08 08:24:03;;;;;;;2.40;1.95;;;;;;;20.66;57.97;101855.03;20902418;28;20060;-64
2023/05/08 08:34:04;;;;;;;3.30;2.00;;;;;;;20.73;57.85;101857.03;20902432;28;20110;-64
2023/05/08 08:44:06;;;;;;;1.70;1.60;;;;;;;20.73;57.86;101843.53;20901100;28;20045;-64
2023/05/08 08:54:10;;;;;;;2.08;1.88;;;;;;;20.82;58.29;101847.31;20900806;28;20056;-64
2023/05/08 09:04:12;;;;;;;1.93;1.80;;;;;;;20.86;57.98;101835.25;20900487;28;20178;-64
2023/05/08 09:14:13;;;;;;;2.00;1.80;;;;;;;20.87;58.10;101822.56;20886194;28;20080;-64
2023/05/08 09:24:15;;;;;;;1.92;1.75;;;;;;;20.91;58.15;101824.03;20898967;28;20056;-64
2023/05/08 09:34:26;;;;;;;1.83;1.60;;;;;;;20.91;58.35;101829.44;20899534;28;20045;-64
2023/05/08 09:44:50;;;;;;;1.50;1.40;;;;;;;20.94;58.34;101812.06;20899417;28;20136;-64
2023/05/08 09:55:02;;;;;;;1.98;1.70;;;;;;;20.96;58.57;101804.66;20903453;28;20497;-64
2023/05/08 10:05:05;;;;;;;1.70;1.60;;;;;;;20.98;58.65;101799.97;20911724;28;20413;-64
2023/05/08 10:15:07;;;;;;;1.55;1.45;;;;;;;20.99;58.75;101802.53;20899129;28;20525;-64
2023/05/08 10:25:14;;;;;;;1.60;1.40;;;;;;;21.00;58.81;101806.97;20912251;28;20668;-64
2023/05/08 10:35:15;;;;;;;1.95;1.85;;;;;;;21.03;58.94;101797.72;20911541;28;20390;-64
2023/05/08 10:45:17;;;;;;;1.40;1.30;;;;;;;21.06;58.99;101804.72;20911019;28;20504;-64
2023/05/08 10:55:23;;;;;;;1.38;1.27;;;;;;;21.08;59.00;101781.06;20910402;28;20053;-64
2023/05/08 11:05:27;;;;;;;1.58;1.48;;;;;;;21.08;58.97;101781.94;20899972;28;20049;-64
2023/05/08 11:15:36;;;;;;;1.35;1.25;;;;;;;21.03;59.00;101769.78;20904185;28;20048;-64
2023/05/08 11:25:43;;;;;;;1.35;1.25;;;;;;;21.06;59.18;101772.22;20908218;28;20245;-64
2023/05/08 11:35:48;;;;;;;1.00;1.00;;;;;;;21.12;59.18;101771.66;20905647;28;20053;-64
2023/05/08 11:45:51;;;;;;;1.27;1.15;;;;;;;21.06;59.15;101755.97;20906050;28;20638;-64
2023/05/08 11:55:53;;;;;;;0.95;0.93;;;;;;;21.07;59.15;101757.69;20905781;28;20060;-64
2023/05/08 12:05:56;;;;;;;1.50;1.40;;;;;;;21.14;59.19;101758.84;20889034;28;20128;-64
2023/05/08 12:15:59;;;;;;;1.45;1.30;;;;;;;21.14;59.31;101769.69;20902466;28;20061;-64
2023/05/08 12:26:00;;;;;;;1.50;1.40;;;;;;;21.14;59.34;101743.47;20903355;28;20057;-64
2023/05/08 12:36:04;;;;;;;1.20;1.10;;;;;;;21.16;59.47;101743.31;20901230;28;20044;-64
2023/05/08 12:46:10;;;;;;;1.23;1.13;;;;;;;21.15;59.36;101749.72;20900480;28;20045;-64
2023/05/08 12:56:11;;;;;;;1.20;1.10;;;;;;;21.13;59.39;101736.34;20901356;28;20061;-64
2023/05/08 13:06:20;;;;;;;1.63;1.20;;;;;;;21.11;59.44;101726.63;20890599;28;20131;-64
2023/05/08 13:16:22;;;;;;;1.40;1.30;;;;;;;21.12;59.35;101720.22;20900020;28;20041;-64
2023/05/08 13:26:24;;;;;;;1.30;1.20;;;;;;;21.13;59.34;101717.41;20901087;28;20077;-65
2023/05/08 13:36:26;;;;;;;1.35;1.20;;;;;;;21.13;59.22;101697.56;20916861;28;20098;-64
2023/05/08 13:46:27;;;;;;;1.20;1.10;;;;;;;21.14;59.15;101691.16;20915635;28;20053;-64
2023/05/08 13:56:29;;;;;;;1.02;0.90;;;;;;;21.13;59.28;101681.31;20914770;28;20037;-64
2023/05/08 14:06:31;;;;;;;1.30;1.20;;;;;;;21.13;59.23;101678.63;20900571;28;20390;-64
2023/05/08 14:16:32;;;;;;;1.10;1.10;;;;;;;21.12;59.18;101666.94;20912902;28;20390;-64
2023/05/08 14:26:34;;;;;;;1.25;1.15;;;;;;;21.12;59.26;101663.38;20913168;28;20059;-64
2023/05/08 14:36:36;;;;;;;1.40;1.30;;;;;;;21.10;59.38;101681.59;20912927;28;20067;-64
2023/05/08 14:46:37;;;;;;;1.30;1.20;;;;;;;21.05;59.28;101695.56;20911260;28;20095;-64
2023/05/08 14:56:39;;;;;;;1.25;1.15;;;;;;;21.01;59.75;101727.47;20910351;28;20053;-65
2023/05/08 15:06:48;;;;;;;1.13;1.08;;;;;;;20.98;60.04;101703.38;20901126;28;20124;-64
2023/05/08 15:17:15;;;;;;;1.00;1.00;;;;;;;20.95;60.31;101700.94;20910125;28;20044;-65
2023/05/08 15:27:16;;;;;;;1.15;1.02;;;;;;;20.92;60.49;101682.28;20908314;28;20163;-65
2023/05/08 15:37:18;;;;;;;1.30;1.20;;;;;;;20.91;60.58;101672.44;20907454;28;20504;-64
2023/05/08 15:47:21;;;;;;;1.40;1.30;;;;;;;20.88;60.85;101670.03;20907352;28;20575;-64
2023/05/08 15:57:25;;;;;;;1.17;1.15;;;;;;;20.88;60.84;101661.91;20899947;28;20153;-65
2023/05/08 16:07:27;;;;;;;1.13;1.03;;;;;;;20.85;60.97;101656.75;20895979;28;20049;-64
2023/05/08 16:17:28;;;;;;;1.20;1.10;;;;;;;20.84;61.17;101665.88;20903965;28;20334;-64
2023/05/08 16:27:30;;;;;;;1.20;1.10;;;;;;;20.81;61.29;101645.34;20901795;28;20049;-64
2023/05/08 16:37:31;;;;;;;1.20;1.10;;;;;;;20.81;61.42;101656.19;20902405;28;20053;-64
2023/05/08 16:47:34;;;;;;;1.20;1.10;;;;;;;20.81;61.59;101650.75;20902078;28;20041;-64
2023/05/08 16:57:35;;;;;;;1.20;1.10;;;;;;;20.80;61.74;101648.22;20887641;28;20045;-64
2023/05/08 17:07:38;;;;;;;1.52;1.20;;;;;;;20.79;62.00;101652.75;20897450;28;20049;-64
2023/05/08 17:17:39;;;;;;;1.38;1.15;;;;;;;20.78;62.06;101666.41;20899406;28;20060;-64
2023/05/08 17:27:42;;;;;;;1.30;1.20;;;;;;;20.77;62.25;101651.13;20900102;28;20049;-64
2023/05/08 17:37:44;;;;;;;1.23;1.13;;;;;;;20.75;62.57;101645.88;20898511;28;20115;-64
2023/05/08 17:47:45;;;;;;;1.40;1.30;;;;;;;20.73;62.90;101640.59;20898364;28;20728;-64
2023/05/08 17:57:47;;;;;;;1.08;0.98;;;;;;;20.72;63.13;101635.31;20886612;28;20132;-64
2023/05/08 18:07:48;;;;;;;1.42;1.23;;;;;;;20.71;63.14;101633.63;20896779;28;20049;-64
2023/05/08 18:17:52;;;;;;;1.10;1.10;;;;;;;20.69;63.59;101636.44;20904916;28;20049;-64
2023/05/08 18:27:53;;;;;;;1.20;1.10;;;;;;;20.68;63.82;101633.88;20912800;28;20055;-64
2023/05/08 18:37:55;;;;;;;1.20;1.10;;;;;;;20.66;63.91;101642.13;20912238;28;20409;-64
2023/05/08 18:47:57;;;;;;;1.55;1.30;;;;;;;20.65;64.15;101634.16;20911186;28;20060;-65
2023/05/08 18:57:58;;;;;;;1.50;1.40;;;;;;;20.65;64.38;101634.16;20895349;28;20592;-64
2023/05/08 19:08:00;;;;;;;1.35;1.25;;;;;;;20.61;64.54;101625.44;20909090;28;20048;-64
2023/05/08 19:18:02;;;;;;;1.95;1.30;;;;;;;20.61;64.55;101635.44;20908317;28;20107;-64
2023/05/08 19:28:04;;;;;;;1.60;1.27;;;;;;;20.60;64.43;101629.16;20907029;28;20045;-64
2023/05/08 19:38:05;;;;;;;1.45;1.17;;;;;;;20.59;64.66;101619.31;20905337;28;20049;-64
2023/05/08 19:48:07;;;;;;;1.27;1.17;;;;;;;20.58;64.22;101633.84;20906234;28;20048;-64
2023/05/08 19:58:18;;;;;;;1.23;1.20;;;;;;;20.58;64.13;101642.84;20896325;28;20073;-64
2023/05/08 20:08:19;;;;;;;1.40;1.30;;;;;;;20.56;63.98;101625.88;20904743;28;20052;-64
2023/05/08 20:18:21;;;;;;;1.33;1.23;;;;;;;20.57;63.93;101618.59;20903675;28;20049;-65
2023/05/08 20:28:24;;;;;;;1.85;1.63;;;;;;;20.56;64.08;101603.38;20903128;28;20412;-64
2023/05/08 20:38:26;;;;;;;1.30;1.20;;;;;;;20.54;64.01;101602.66;20901642;28;20081;-64
2023/05/08 20:48:28;;;;;;;1.73;1.30;;;;;;;20.54;63.96;101597.25;20901200;28;20030;-64
2023/05/08 20:58:30;;;;;;;1.50;1.40;;;;;;;20.54;63.90;101589.13;20888511;28;20053;-64
2023/05/08 21:08:31;;;;;;;1.23;1.13;;;;;;;20.53;63.93;101595.53;20900471;28;20459;-64
2023/05/08 21:18:33;;;;;;;1.50;1.40;;;;;;;20.51;63.93;101575.88;20899646;28;20496;-64
2023/05/08 21:28:35;;;;;;;1.40;1.30;;;;;;;20.50;64.00;101569.59;20899413;28;20049;-64
2023/05/08 21:38:36;;;;;;;1.30;1.20;;;;;;;20.49;64.06;101589.53;20899267;28;20053;-65
2023/05/08 21:48:38;;;;;;;1.65;1.55;;;;;;;20.48;64.24;101579.69;20896017;28;20712;-64
2023/05/08 21:58:39;;;;;;;1.33;1.23;;;;;;;20.48;64.42;101570.75;20905412;28;20123;-64
2023/05/08 22:08:41;;;;;;;1.65;1.55;;;;;;;20.47;64.41;101563.63;20912932;28;20107;-64
2023/05/08 22:18:42;;;;;;;1.80;1.70;;;;;;;20.46;64.31;101553.81;20913556;28;20088;-64
2023/05/08 22:28:44;;;;;;;1.85;1.40;;;;;;;20.46;64.54;101542.97;20912559;28;20055;-64
2023/05/08 22:38:45;;;;;;;1.48;1.38;;;;;;;20.44;64.48;101529.59;20911766;28;20049;-64
2023/05/08 22:48:47;;;;;;;1.58;1.48;;;;;;;20.42;64.71;101518.91;20900814;28;20092;-64
2023/05/08 22:58:48;;;;;;;1.58;1.48;;;;;;;20.42;64.54;101516.22;20745582;28;20112;-64
2023/05/08 23:08:50;;;;;;;1.60;1.50;;;;;;;20.41;64.55;101497.41;20743826;28;20062;-65
2023/05/08 23:18:52;;;;;;;1.75;1.65;;;;;;;20.36;64.71;101489.72;20743369;28;20449;-64
2023/05/08 23:28:53;;;;;;;2.15;1.58;;;;;;;20.39;64.77;101489.47;20743118;28;20050;-64
2023/05/08 23:38:55;;;;;;;1.90;1.80;;;;;;;20.39;64.86;101481.34;20743040;28;20100;-64
2023/05/08 23:48:56;;;;;;;2.08;1.88;;;;;;;20.38;64.96;101468.81;20790141;28;20049;-64
2023/05/08 23:58:58;;;;;;;1.98;1.63;;;;;;;20.37;65.06;101467.09;20906049;28;20085;-65
